sensor_id;sensor_type;location;lat;lon;timestamp;temperature;humidity
71047;SHT31;58703;48.978;8.982;2022-11-21T00:00:46;6.21;89.53
71047;SHT31;58703;48.978;8.982;2022-11-21T00:03:14;6.18;89.72
71047;SHT31;58703;48.978;8.982;2022-11-21T00:05:45;6.31;88.98
71047;SHT31;58703;48.978;8.982;2022-11-21T00:08:13;6.24;89.53
71047;SHT31;58703;48.978;8.982;2022-11-21T00:10:39;6.26;89.18
71047;SHT31;58703;48.978;8.982;2022-11-21T00:13:06;6.24;88.62
71047;SHT31;58703;48.978;8.982;2022-11-21T00:15:33;6.28;87.76
71047;SHT31;58703;48.978;8.982;2022-11-21T00:18:01;6.18;88.12
71047;SHT31;58703;48.978;8.982;2022-11-21T00:20:27;6.14;87.85
71047;SHT31;58703;48.978;8.982;2022-11-21T00:22:52;5.98;88.68
71047;SHT31;58703;48.978;8.982;2022-11-21T00:25:18;5.87;89.16
71047;SHT31;58703;48.978;8.982;2022-11-21T00:27:44;5.84;89.57
71047;SHT31;58703;48.978;8.982;2022-11-21T00:30:11;5.83;89.63
71047;SHT31;58703;48.978;8.982;2022-11-21T00:32:37;5.81;89.69
71047;SHT31;58703;48.978;8.982;2022-11-21T00:35:04;5.71;90.10
71047;SHT31;58703;48.978;8.982;2022-11-21T00:37:31;5.87;89.62
71047;SHT31;58703;48.978;8.982;2022-11-21T00:39:56;5.81;89.92
71047;SHT31;58703;48.978;8.982;2022-11-21T00:42:22;5.67;90.52
71047;SHT31;58703;48.978;8.982;2022-11-21T00:44:48;5.57;91.17
71047;SHT31;58703;48.978;8.982;2022-11-21T00:47:15;5.53;91.39
71047;SHT31;58703;48.978;8.982;2022-11-21T00:49:40;5.69;90.85
71047;SHT31;58703;48.978;8.982;2022-11-21T00:52:06;5.59;91.28
71047;SHT31;58703;48.978;8.982;2022-11-21T00:54:32;5.81;90.23
71047;SHT31;58703;48.978;8.982;2022-11-21T00:56:57;5.71;90.66
71047;SHT31;58703;48.978;8.982;2022-11-21T00:59:23;5.53;91.52
71047;SHT31;58703;48.978;8.982;2022-11-21T01:01:50;5.47;92.04
71047;SHT31;58703;48.978;8.982;2022-11-21T01:04:15;5.56;91.78
71047;SHT31;58703;48.978;8.982;2022-11-21T01:06:43;5.50;92.40
71047;SHT31;58703;48.978;8.982;2022-11-21T01:09:08;5.42;93.04
71047;SHT31;58703;48.978;8.982;2022-11-21T01:11:36;5.53;92.96
71047;SHT31;58703;48.978;8.982;2022-11-21T01:14:01;5.67;92.89
71047;SHT31;58703;48.978;8.982;2022-11-21T01:16:28;5.71;93.30
71047;SHT31;58703;48.978;8.982;2022-11-21T01:18:56;5.73;93.50
71047;SHT31;58703;48.978;8.982;2022-11-21T01:21:24;5.67;94.31
71047;SHT31;58703;48.978;8.982;2022-11-21T01:23:51;5.57;96.05
71047;SHT31;58703;48.978;8.982;2022-11-21T01:26:20;5.73;94.61
71047;SHT31;58703;48.978;8.982;2022-11-21T01:28:47;5.74;94.95
71047;SHT31;58703;48.978;8.982;2022-11-21T01:31:18;5.67;95.99
71047;SHT31;58703;48.978;8.982;2022-11-21T01:33:46;5.59;96.27
71047;SHT31;58703;48.978;8.982;2022-11-21T01:36:14;5.63;96.41
71047;SHT31;58703;48.978;8.982;2022-11-21T01:38:46;5.57;97.34
71047;SHT31;58703;48.978;8.982;2022-11-21T01:41:15;5.56;97.04
71047;SHT31;58703;48.978;8.982;2022-11-21T01:43:41;5.56;96.88
71047;SHT31;58703;48.978;8.982;2022-11-21T01:48:44;5.40;96.29
71047;SHT31;58703;48.978;8.982;2022-11-21T01:53:45;5.30;95.38
71047;SHT31;58703;48.978;8.982;2022-11-21T01:56:12;5.26;94.21
71047;SHT31;58703;48.978;8.982;2022-11-21T01:58:39;5.18;94.53
71047;SHT31;58703;48.978;8.982;2022-11-21T02:01:06;5.12;94.89
71047;SHT31;58703;48.978;8.982;2022-11-21T02:03:33;5.02;95.51
71047;SHT31;58703;48.978;8.982;2022-11-21T02:06:00;4.99;95.79
71047;SHT31;58703;48.978;8.982;2022-11-21T02:08:27;4.98;96.00
71047;SHT31;58703;48.978;8.982;2022-11-21T02:13:47;4.87;96.02
71047;SHT31;58703;48.978;8.982;2022-11-21T02:16:13;4.85;96.49
71047;SHT31;58703;48.978;8.982;2022-11-21T02:18:39;4.81;97.06
71047;SHT31;58703;48.978;8.982;2022-11-21T02:26:37;4.72;97.83
71047;SHT31;58703;48.978;8.982;2022-11-21T02:29:02;4.68;98.06
71047;SHT31;58703;48.978;8.982;2022-11-21T02:31:28;4.69;98.28
71047;SHT31;58703;48.978;8.982;2022-11-21T02:33:54;4.71;98.78
71047;SHT31;58703;48.978;8.982;2022-11-21T02:36:41;4.75;98.43
71047;SHT31;58703;48.978;8.982;2022-11-21T02:39:10;4.77;97.85
71047;SHT31;58703;48.978;8.982;2022-11-21T02:41:41;4.84;97.47
71047;SHT31;58703;48.978;8.982;2022-11-21T02:44:14;4.95;96.77
71047;SHT31;58703;48.978;8.982;2022-11-21T02:46:50;4.98;96.63
71047;SHT31;58703;48.978;8.982;2022-11-21T02:52:28;5.15;96.32
71047;SHT31;58703;48.978;8.982;2022-11-21T02:54:54;5.33;95.16
71047;SHT31;58703;48.978;8.982;2022-11-21T02:57:19;5.36;95.19
71047;SHT31;58703;48.978;8.982;2022-11-21T02:59:45;5.42;94.93
71047;SHT31;58703;48.978;8.982;2022-11-21T03:02:11;5.36;95.57
71047;SHT31;58703;48.978;8.982;2022-11-21T03:04:36;5.46;94.99
71047;SHT31;58703;48.978;8.982;2022-11-21T03:07:02;5.56;94.60
71047;SHT31;58703;48.978;8.982;2022-11-21T03:09:29;5.61;94.66
71047;SHT31;58703;48.978;8.982;2022-11-21T03:11:54;5.52;95.62
71047;SHT31;58703;48.978;8.982;2022-11-21T03:14:21;5.56;95.06
71047;SHT31;58703;48.978;8.982;2022-11-21T03:16:48;5.57;95.54
71047;SHT31;58703;48.978;8.982;2022-11-21T03:19:15;5.53;95.44
71047;SHT31;58703;48.978;8.982;2022-11-21T03:21:40;5.57;95.06
71047;SHT31;58703;48.978;8.982;2022-11-21T03:24:07;5.56;95.61
71047;SHT31;58703;48.978;8.982;2022-11-21T03:26:32;5.64;94.64
71047;SHT31;58703;48.978;8.982;2022-11-21T03:28:58;5.77;94.32
71047;SHT31;58703;48.978;8.982;2022-11-21T03:31:23;5.67;94.77
71047;SHT31;58703;48.978;8.982;2022-11-21T03:33:49;5.63;95.13
71047;SHT31;58703;48.978;8.982;2022-11-21T03:36:14;5.73;94.48
71047;SHT31;58703;48.978;8.982;2022-11-21T03:38:40;5.80;94.40
71047;SHT31;58703;48.978;8.982;2022-11-21T03:41:07;5.77;94.29
71047;SHT31;58703;48.978;8.982;2022-11-21T03:43:52;5.77;93.87
71047;SHT31;58703;48.978;8.982;2022-11-21T03:46:18;5.84;93.71
71047;SHT31;58703;48.978;8.982;2022-11-21T03:48:43;5.84;93.78
71047;SHT31;58703;48.978;8.982;2022-11-21T03:51:09;5.73;94.63
71047;SHT31;58703;48.978;8.982;2022-11-21T03:53:34;5.77;94.74
71047;SHT31;58703;48.978;8.982;2022-11-21T03:56:01;5.78;94.39
71047;SHT31;58703;48.978;8.982;2022-11-21T03:58:26;5.89;94.00
71047;SHT31;58703;48.978;8.982;2022-11-21T04:00:54;5.94;93.53
71047;SHT31;58703;48.978;8.982;2022-11-21T04:03:19;5.89;94.32
71047;SHT31;58703;48.978;8.982;2022-11-21T04:05:45;5.91;94.34
71047;SHT31;58703;48.978;8.982;2022-11-21T04:08:10;5.97;93.99
71047;SHT31;58703;48.978;8.982;2022-11-21T04:10:36;5.90;94.54
71047;SHT31;58703;48.978;8.982;2022-11-21T04:13:01;5.87;95.07
71047;SHT31;58703;48.978;8.982;2022-11-21T04:15:28;5.81;94.99
71047;SHT31;58703;48.978;8.982;2022-11-21T04:17:54;5.84;95.36
71047;SHT31;58703;48.978;8.982;2022-11-21T04:20:19;5.87;95.27
71047;SHT31;58703;48.978;8.982;2022-11-21T04:22:45;5.95;94.27
71047;SHT31;58703;48.978;8.982;2022-11-21T04:25:10;5.93;94.60
71047;SHT31;58703;48.978;8.982;2022-11-21T04:27:39;6.04;93.87
71047;SHT31;58703;48.978;8.982;2022-11-21T04:30:05;6.07;93.91
71047;SHT31;58703;48.978;8.982;2022-11-21T04:32:30;6.04;94.21
71047;SHT31;58703;48.978;8.982;2022-11-21T04:34:56;6.01;94.64
71047;SHT31;58703;48.978;8.982;2022-11-21T04:37:23;5.95;95.38
71047;SHT31;58703;48.978;8.982;2022-11-21T04:39:48;5.95;95.11
71047;SHT31;58703;48.978;8.982;2022-11-21T04:42:14;6.08;94.16
71047;SHT31;58703;48.978;8.982;2022-11-21T04:44:41;5.91;95.97
71047;SHT31;58703;48.978;8.982;2022-11-21T04:47:06;5.97;95.23
71047;SHT31;58703;48.978;8.982;2022-11-21T04:49:32;5.93;95.56
71047;SHT31;58703;48.978;8.982;2022-11-21T04:51:58;6.07;94.44
71047;SHT31;58703;48.978;8.982;2022-11-21T04:54:23;6.00;95.13
71047;SHT31;58703;48.978;8.982;2022-11-21T04:56:49;6.04;95.41
71047;SHT31;58703;48.978;8.982;2022-11-21T04:59:16;5.95;95.36
71047;SHT31;58703;48.978;8.982;2022-11-21T05:01:41;5.91;96.05
71047;SHT31;58703;48.978;8.982;2022-11-21T05:04:08;6.08;95.16
71047;SHT31;58703;48.978;8.982;2022-11-21T05:06:33;5.93;95.91
71047;SHT31;58703;48.978;8.982;2022-11-21T05:08:59;5.93;96.59
71047;SHT31;58703;48.978;8.982;2022-11-21T05:11:24;5.91;96.13
71047;SHT31;58703;48.978;8.982;2022-11-21T05:14:09;6.17;94.48
71047;SHT31;58703;48.978;8.982;2022-11-21T05:16:35;6.14;94.51
71047;SHT31;58703;48.978;8.982;2022-11-21T05:19:01;6.11;94.51
71047;SHT31;58703;48.978;8.982;2022-11-21T05:21:26;6.18;93.22
71047;SHT31;58703;48.978;8.982;2022-11-21T05:23:52;6.18;93.14
71047;SHT31;58703;48.978;8.982;2022-11-21T05:26:17;6.07;93.89
71047;SHT31;58703;48.978;8.982;2022-11-21T05:28:43;6.10;94.00
71047;SHT31;58703;48.978;8.982;2022-11-21T05:31:09;6.11;93.46
71047;SHT31;58703;48.978;8.982;2022-11-21T05:33:35;6.24;92.99
71047;SHT31;58703;48.978;8.982;2022-11-21T05:36:00;6.13;94.29
71047;SHT31;58703;48.978;8.982;2022-11-21T05:38:26;6.03;94.50
71047;SHT31;58703;48.978;8.982;2022-11-21T05:40:51;6.13;94.08
71047;SHT31;58703;48.978;8.982;2022-11-21T05:43:17;6.10;93.89
71047;SHT31;58703;48.978;8.982;2022-11-21T05:46:02;6.13;93.95
71047;SHT31;58703;48.978;8.982;2022-11-21T05:48:29;6.13;94.16
71047;SHT31;58703;48.978;8.982;2022-11-21T05:50:54;6.10;94.59
71047;SHT31;58703;48.978;8.982;2022-11-21T05:53:20;6.17;93.62
71047;SHT31;58703;48.978;8.982;2022-11-21T05:55:45;6.08;94.32
71047;SHT31;58703;48.978;8.982;2022-11-21T05:58:11;6.07;93.71
71047;SHT31;58703;48.978;8.982;2022-11-21T06:00:38;6.04;94.29
71047;SHT31;58703;48.978;8.982;2022-11-21T06:03:07;5.97;94.60
71047;SHT31;58703;48.978;8.982;2022-11-21T06:06:13;5.81;94.76
71047;SHT31;58703;48.978;8.982;2022-11-21T06:08:42;5.71;95.11
71047;SHT31;58703;48.978;8.982;2022-11-21T06:11:10;5.74;94.60
71047;SHT31;58703;48.978;8.982;2022-11-21T06:13:36;5.77;94.29
71047;SHT31;58703;48.978;8.982;2022-11-21T06:18:38;5.77;94.00
71047;SHT31;58703;48.978;8.982;2022-11-21T06:21:14;5.69;94.55
71047;SHT31;58703;48.978;8.982;2022-11-21T06:23:40;5.73;94.22
71047;SHT31;58703;48.978;8.982;2022-11-21T06:26:10;5.77;94.11
71047;SHT31;58703;48.978;8.982;2022-11-21T06:28:39;5.64;94.72
71047;SHT31;58703;48.978;8.982;2022-11-21T06:31:06;5.78;93.21
71047;SHT31;58703;48.978;8.982;2022-11-21T06:33:32;5.78;93.15
71047;SHT31;58703;48.978;8.982;2022-11-21T06:36:14;5.84;93.43
71047;SHT31;58703;48.978;8.982;2022-11-21T06:38:43;5.81;94.02
71047;SHT31;58703;48.978;8.982;2022-11-21T06:41:13;5.63;94.87
71047;SHT31;58703;48.978;8.982;2022-11-21T06:43:40;5.77;94.27
71047;SHT31;58703;48.978;8.982;2022-11-21T06:46:06;5.78;94.27
71047;SHT31;58703;48.978;8.982;2022-11-21T06:48:33;5.84;93.86
71047;SHT31;58703;48.978;8.982;2022-11-21T06:51:22;5.91;93.26
71047;SHT31;58703;48.978;8.982;2022-11-21T06:53:55;5.77;93.89
71047;SHT31;58703;48.978;8.982;2022-11-21T06:56:23;5.73;94.31
71047;SHT31;58703;48.978;8.982;2022-11-21T06:58:48;5.69;94.36
71047;SHT31;58703;48.978;8.982;2022-11-21T07:01:14;5.63;94.48
71047;SHT31;58703;48.978;8.982;2022-11-21T07:03:40;5.60;94.62
71047;SHT31;58703;48.978;8.982;2022-11-21T07:06:06;5.77;93.70
71047;SHT31;58703;48.978;8.982;2022-11-21T07:08:33;5.71;93.85
71047;SHT31;58703;48.978;8.982;2022-11-21T07:11:08;5.83;93.17
71047;SHT31;58703;48.978;8.982;2022-11-21T07:13:34;5.74;93.60
71047;SHT31;58703;48.978;8.982;2022-11-21T07:16:02;5.93;92.17
71047;SHT31;58703;48.978;8.982;2022-11-21T07:18:28;6.10;91.37
71047;SHT31;58703;48.978;8.982;2022-11-21T07:21:12;6.03;91.50
71047;SHT31;58703;48.978;8.982;2022-11-21T07:23:39;6.08;91.53
71047;SHT31;58703;48.978;8.982;2022-11-21T07:26:09;6.15;91.08
71047;SHT31;58703;48.978;8.982;2022-11-21T07:28:35;6.17;91.13
71047;SHT31;58703;48.978;8.982;2022-11-21T07:31:01;6.24;90.68
71047;SHT31;58703;48.978;8.982;2022-11-21T07:33:27;6.32;91.43
71047;SHT31;58703;48.978;8.982;2022-11-21T07:35:57;6.32;90.19
71047;SHT31;58703;48.978;8.982;2022-11-21T07:38:27;6.31;89.99
71047;SHT31;58703;48.978;8.982;2022-11-21T07:40:55;6.38;90.19
71047;SHT31;58703;48.978;8.982;2022-11-21T07:43:20;6.49;90.45
71047;SHT31;58703;48.978;8.982;2022-11-21T07:45:46;6.65;88.70
71047;SHT31;58703;48.978;8.982;2022-11-21T07:48:11;6.64;88.63
71047;SHT31;58703;48.978;8.982;2022-11-21T07:50:37;6.69;89.20
71047;SHT31;58703;48.978;8.982;2022-11-21T07:53:05;6.64;89.63
71047;SHT31;58703;48.978;8.982;2022-11-21T07:55:32;6.57;89.23
71047;SHT31;58703;48.978;8.982;2022-11-21T07:58:02;6.57;88.88
71047;SHT31;58703;48.978;8.982;2022-11-21T08:00:29;6.66;87.80
71047;SHT31;58703;48.978;8.982;2022-11-21T08:02:55;6.75;87.49
71047;SHT31;58703;48.978;8.982;2022-11-21T08:05:21;6.80;88.39
71047;SHT31;58703;48.978;8.982;2022-11-21T08:07:46;6.75;87.85
71047;SHT31;58703;48.978;8.982;2022-11-21T08:10:15;6.82;87.61
71047;SHT31;58703;48.978;8.982;2022-11-21T08:12:40;6.89;87.83
71047;SHT31;58703;48.978;8.982;2022-11-21T08:15:07;6.97;87.65
71047;SHT31;58703;48.978;8.982;2022-11-21T08:17:33;6.99;87.39
71047;SHT31;58703;48.978;8.982;2022-11-21T08:19:59;6.96;87.13
71047;SHT31;58703;48.978;8.982;2022-11-21T08:22:25;7.06;87.39
71047;SHT31;58703;48.978;8.982;2022-11-21T08:24:51;7.08;87.28
71047;SHT31;58703;48.978;8.982;2022-11-21T08:27:21;7.08;87.08
71047;SHT31;58703;48.978;8.982;2022-11-21T08:29:48;7.20;87.16
71047;SHT31;58703;48.978;8.982;2022-11-21T08:32:15;7.31;86.83
71047;SHT31;58703;48.978;8.982;2022-11-21T08:34:41;7.21;85.66
71047;SHT31;58703;48.978;8.982;2022-11-21T08:37:06;7.38;86.12
71047;SHT31;58703;48.978;8.982;2022-11-21T08:39:32;7.37;85.39
71047;SHT31;58703;48.978;8.982;2022-11-21T08:41:59;7.38;84.42
71047;SHT31;58703;48.978;8.982;2022-11-21T08:44:28;7.30;84.90
71047;SHT31;58703;48.978;8.982;2022-11-21T08:46:54;7.44;84.38
71047;SHT31;58703;48.978;8.982;2022-11-21T08:49:20;7.51;84.74
71047;SHT31;58703;48.978;8.982;2022-11-21T08:51:47;7.58;85.87
71047;SHT31;58703;48.978;8.982;2022-11-21T08:54:21;7.54;83.72
71047;SHT31;58703;48.978;8.982;2022-11-21T08:56:48;7.62;82.97
71047;SHT31;58703;48.978;8.982;2022-11-21T08:59:16;7.67;83.76
71047;SHT31;58703;48.978;8.982;2022-11-21T09:01:43;7.82;83.09
71047;SHT31;58703;48.978;8.982;2022-11-21T09:04:08;7.71;84.98
71047;SHT31;58703;48.978;8.982;2022-11-21T09:06:34;7.85;83.36
71047;SHT31;58703;48.978;8.982;2022-11-21T09:09:00;7.78;83.67
71047;SHT31;58703;48.978;8.982;2022-11-21T09:11:26;7.81;83.33
71047;SHT31;58703;48.978;8.982;2022-11-21T09:13:53;7.69;83.66
71047;SHT31;58703;48.978;8.982;2022-11-21T09:16:37;8.05;83.50
71047;SHT31;58703;48.978;8.982;2022-11-21T09:19:22;7.85;82.61
71047;SHT31;58703;48.978;8.982;2022-11-21T09:21:49;8.14;83.81
71047;SHT31;58703;48.978;8.982;2022-11-21T09:24:16;7.96;83.26
71047;SHT31;58703;48.978;8.982;2022-11-21T09:26:43;7.95;83.90
71047;SHT31;58703;48.978;8.982;2022-11-21T09:29:10;8.03;84.31
71047;SHT31;58703;48.978;8.982;2022-11-21T09:31:38;8.43;82.69
71047;SHT31;58703;48.978;8.982;2022-11-21T09:34:05;8.64;82.17
71047;SHT31;58703;48.978;8.982;2022-11-21T09:36:30;8.25;82.39
71047;SHT31;58703;48.978;8.982;2022-11-21T09:38:56;8.43;81.90
71047;SHT31;58703;48.978;8.982;2022-11-21T09:46:46;7.88;82.36
71047;SHT31;58703;48.978;8.982;2022-11-21T09:49:13;7.78;83.78
71047;SHT31;58703;48.978;8.982;2022-11-21T09:51:41;7.54;85.86
71047;SHT31;58703;48.978;8.982;2022-11-21T09:54:21;7.20;88.28
71047;SHT31;58703;48.978;8.982;2022-11-21T09:56:49;7.20;90.25
71047;SHT31;58703;48.978;8.982;2022-11-21T09:59:31;6.97;86.82
71047;SHT31;58703;48.978;8.982;2022-11-21T10:01:59;6.97;88.69
71047;SHT31;58703;48.978;8.982;2022-11-21T10:04:26;7.06;89.98
71047;SHT31;58703;48.978;8.982;2022-11-21T10:07:07;7.01;89.31
71047;SHT31;58703;48.978;8.982;2022-11-21T10:12:49;6.59;88.62
71047;SHT31;58703;48.978;8.982;2022-11-21T10:15:34;6.38;90.39
71047;SHT31;58703;48.978;8.982;2022-11-21T10:21:14;5.98;89.95
71047;SHT31;58703;48.978;8.982;2022-11-21T10:24:11;6.14;88.78
71047;SHT31;58703;48.978;8.982;2022-11-21T10:26:53;6.11;89.27
71047;SHT31;58703;48.978;8.982;2022-11-21T10:29:31;6.05;90.28
71047;SHT31;58703;48.978;8.982;2022-11-21T10:32:03;6.50;91.08
71047;SHT31;58703;48.978;8.982;2022-11-21T10:34:37;7.06;88.38
71047;SHT31;58703;48.978;8.982;2022-11-21T10:39:53;7.79;86.75
71047;SHT31;58703;48.978;8.982;2022-11-21T10:44:51;8.30;85.12
71047;SHT31;58703;48.978;8.982;2022-11-21T10:47:35;9.19;82.28
71047;SHT31;58703;48.978;8.982;2022-11-21T10:53:02;8.44;83.81
71047;SHT31;58703;48.978;8.982;2022-11-21T10:56:01;9.12;83.80
71047;SHT31;58703;48.978;8.982;2022-11-21T10:58:49;9.21;84.04
71047;SHT31;58703;48.978;8.982;2022-11-21T11:01:23;9.31;85.13
71047;SHT31;58703;48.978;8.982;2022-11-21T11:06:34;10.64;81.72
71047;SHT31;58703;48.978;8.982;2022-11-21T11:09:02;11.11;75.00
71047;SHT31;58703;48.978;8.982;2022-11-21T11:11:28;10.65;76.99
71047;SHT31;58703;48.978;8.982;2022-11-21T11:14:02;9.76;77.40
71047;SHT31;58703;48.978;8.982;2022-11-21T11:16:30;10.03;79.04
71047;SHT31;58703;48.978;8.982;2022-11-21T11:19:01;10.09;78.00
71047;SHT31;58703;48.978;8.982;2022-11-21T11:21:42;9.59;76.97
71047;SHT31;58703;48.978;8.982;2022-11-21T11:37:29;10.96;74.27
71047;SHT31;58703;48.978;8.982;2022-11-21T11:40:28;9.97;75.86
71047;SHT31;58703;48.978;8.982;2022-11-21T11:43:09;9.31;76.62
71047;SHT31;58703;48.978;8.982;2022-11-21T11:48:56;8.95;78.72
71047;SHT31;58703;48.978;8.982;2022-11-21T11:51:46;8.87;79.42
71047;SHT31;58703;48.978;8.982;2022-11-21T11:54:19;8.74;79.96
71047;SHT31;58703;48.978;8.982;2022-11-21T11:56:46;8.53;80.13
71047;SHT31;58703;48.978;8.982;2022-11-21T11:59:35;8.97;79.32
71047;SHT31;58703;48.978;8.982;2022-11-21T12:04:38;9.49;78.22
71047;SHT31;58703;48.978;8.982;2022-11-21T12:07:20;10.06;77.37
71047;SHT31;58703;48.978;8.982;2022-11-21T12:10:28;10.34;75.14
71047;SHT31;58703;48.978;8.982;2022-11-21T12:13:09;10.75;77.05
71047;SHT31;58703;48.978;8.982;2022-11-21T12:15:40;11.15;74.00
71047;SHT31;58703;48.978;8.982;2022-11-21T12:21:08;11.36;70.44
71047;SHT31;58703;48.978;8.982;2022-11-21T12:37:19;10.33;77.16
71047;SHT31;58703;48.978;8.982;2022-11-21T12:46:15;11.33;74.24
71047;SHT31;58703;48.978;8.982;2022-11-21T12:48:50;11.90;74.17
71047;SHT31;58703;48.978;8.982;2022-11-21T12:51:45;12.53;72.05
71047;SHT31;58703;48.978;8.982;2022-11-21T13:03:18;12.50;72.20
71047;SHT31;58703;48.978;8.982;2022-11-21T13:05:48;12.08;70.52
71047;SHT31;58703;48.978;8.982;2022-11-21T13:08:18;11.24;69.80
71047;SHT31;58703;48.978;8.982;2022-11-21T13:11:07;11.34;74.16
71047;SHT31;58703;48.978;8.982;2022-11-21T13:14:03;11.71;73.94
71047;SHT31;58703;48.978;8.982;2022-11-21T13:16:31;10.78;73.17
71047;SHT31;58703;48.978;8.982;2022-11-21T13:19:19;10.27;75.66
71047;SHT31;58703;48.978;8.982;2022-11-21T13:21:52;10.27;74.76
71047;SHT31;58703;48.978;8.982;2022-11-21T13:30:24;11.83;71.35
71047;SHT31;58703;48.978;8.982;2022-11-21T13:32:54;11.66;71.29
71047;SHT31;58703;48.978;8.982;2022-11-21T13:43:22;12.39;68.08
71047;SHT31;58703;48.978;8.982;2022-11-21T13:45:49;12.21;67.43
71047;SHT31;58703;48.978;8.982;2022-11-21T13:51:40;11.78;71.25
71047;SHT31;58703;48.978;8.982;2022-11-21T14:05:34;10.58;73.73
71047;SHT31;58703;48.978;8.982;2022-11-21T14:10:47;9.82;76.44
71047;SHT31;58703;48.978;8.982;2022-11-21T14:18:31;9.16;80.13
71047;SHT31;58703;48.978;8.982;2022-11-21T14:20:59;8.98;79.33
71047;SHT31;58703;48.978;8.982;2022-11-21T14:23:27;9.11;79.42
71047;SHT31;58703;48.978;8.982;2022-11-21T14:25:57;8.77;80.89
71047;SHT31;58703;48.978;8.982;2022-11-21T14:28:29;8.67;80.72
71047;SHT31;58703;48.978;8.982;2022-11-21T14:33:30;8.84;82.32
71047;SHT31;58703;48.978;8.982;2022-11-21T14:36:12;8.71;81.66
71047;SHT31;58703;48.978;8.982;2022-11-21T14:38:47;8.47;81.55
71047;SHT31;58703;48.978;8.982;2022-11-21T14:43:49;8.20;83.00
71047;SHT31;58703;48.978;8.982;2022-11-21T14:46:19;8.16;83.36
71047;SHT31;58703;48.978;8.982;2022-11-21T14:48:45;8.05;83.45
71047;SHT31;58703;48.978;8.982;2022-11-21T14:51:14;8.06;84.60
71047;SHT31;58703;48.978;8.982;2022-11-21T14:53:41;7.91;84.48
71047;SHT31;58703;48.978;8.982;2022-11-21T14:56:29;7.75;85.19
71047;SHT31;58703;48.978;8.982;2022-11-21T14:58:57;7.67;85.89
71047;SHT31;58703;48.978;8.982;2022-11-21T15:01:28;7.57;86.23
71047;SHT31;58703;48.978;8.982;2022-11-21T15:04:04;7.55;87.03
71047;SHT31;58703;48.978;8.982;2022-11-21T15:06:40;7.43;87.40
71047;SHT31;58703;48.978;8.982;2022-11-21T15:09:11;7.50;88.39
71047;SHT31;58703;48.978;8.982;2022-11-21T15:11:50;7.46;87.82
71047;SHT31;58703;48.978;8.982;2022-11-21T15:16:51;7.34;88.03
71047;SHT31;58703;48.978;8.982;2022-11-21T15:19:24;7.24;88.25
71047;SHT31;58703;48.978;8.982;2022-11-21T15:21:51;7.16;88.48
71047;SHT31;58703;48.978;8.982;2022-11-21T15:24:39;7.04;89.10
71047;SHT31;58703;48.978;8.982;2022-11-21T15:27:42;6.97;89.92
71047;SHT31;58703;48.978;8.982;2022-11-21T15:35:50;6.68;90.93
71047;SHT31;58703;48.978;8.982;2022-11-21T15:38:55;6.57;91.32
71047;SHT31;58703;48.978;8.982;2022-11-21T15:41:35;6.41;91.43
71047;SHT31;58703;48.978;8.982;2022-11-21T15:46:33;6.20;92.71
71047;SHT31;58703;48.978;8.982;2022-11-21T15:49:04;6.26;93.55
71047;SHT31;58703;48.978;8.982;2022-11-21T15:51:41;6.17;93.21
71047;SHT31;58703;48.978;8.982;2022-11-21T15:54:10;6.03;93.45
71047;SHT31;58703;48.978;8.982;2022-11-21T15:56:36;5.97;93.59
71047;SHT31;58703;48.978;8.982;2022-11-21T15:59:03;5.74;94.09
71047;SHT31;58703;48.978;8.982;2022-11-21T16:01:29;5.63;94.64
71047;SHT31;58703;48.978;8.982;2022-11-21T16:04:06;5.47;94.54
71047;SHT31;58703;48.978;8.982;2022-11-21T16:06:33;5.42;94.86
71047;SHT31;58703;48.978;8.982;2022-11-21T16:09:00;5.40;94.79
71047;SHT31;58703;48.978;8.982;2022-11-21T16:11:35;5.35;94.85
71047;SHT31;58703;48.978;8.982;2022-11-21T16:14:12;5.29;94.97
71047;SHT31;58703;48.978;8.982;2022-11-21T16:16:41;5.12;95.37
71047;SHT31;58703;48.978;8.982;2022-11-21T16:19:10;5.05;95.73
71047;SHT31;58703;48.978;8.982;2022-11-21T16:21:35;4.95;96.51
71047;SHT31;58703;48.978;8.982;2022-11-21T16:24:01;4.89;96.60
71047;SHT31;58703;48.978;8.982;2022-11-21T16:26:26;4.82;95.86
71047;SHT31;58703;48.978;8.982;2022-11-21T16:28:57;4.77;96.27
71047;SHT31;58703;48.978;8.982;2022-11-21T16:31:29;4.81;96.77
71047;SHT31;58703;48.978;8.982;2022-11-21T16:33:55;4.75;96.64
71047;SHT31;58703;48.978;8.982;2022-11-21T16:36:23;4.54;96.83
71047;SHT31;58703;48.978;8.982;2022-11-21T16:38:49;4.62;96.98
71047;SHT31;58703;48.978;8.982;2022-11-21T16:41:17;4.44;97.47
71047;SHT31;58703;48.978;8.982;2022-11-21T16:43:54;4.36;98.08
71047;SHT31;58703;48.978;8.982;2022-11-21T16:46:22;4.36;97.87
71047;SHT31;58703;48.978;8.982;2022-11-21T16:48:57;4.40;97.87
71047;SHT31;58703;48.978;8.982;2022-11-21T16:51:22;4.38;97.60
71047;SHT31;58703;48.978;8.982;2022-11-21T16:53:48;4.34;98.14
71047;SHT31;58703;48.978;8.982;2022-11-21T16:56:14;4.38;97.96
71047;SHT31;58703;48.978;8.982;2022-11-21T16:58:41;4.33;97.94
71047;SHT31;58703;48.978;8.982;2022-11-21T17:01:12;4.38;98.10
71047;SHT31;58703;48.978;8.982;2022-11-21T17:03:40;4.38;97.89
71047;SHT31;58703;48.978;8.982;2022-11-21T17:06:06;4.37;97.93
71047;SHT31;58703;48.978;8.982;2022-11-21T17:08:34;4.44;97.99
71047;SHT31;58703;48.978;8.982;2022-11-21T17:11:24;4.46;98.23
71047;SHT31;58703;48.978;8.982;2022-11-21T17:13:54;4.50;97.85
71047;SHT31;58703;48.978;8.982;2022-11-21T17:16:21;4.43;98.03
71047;SHT31;58703;48.978;8.982;2022-11-21T17:18:59;4.44;98.01
71047;SHT31;58703;48.978;8.982;2022-11-21T17:21:25;4.51;97.65
71047;SHT31;58703;48.978;8.982;2022-11-21T17:23:52;4.47;97.65
71047;SHT31;58703;48.978;8.982;2022-11-21T17:26:20;4.48;97.57
71047;SHT31;58703;48.978;8.982;2022-11-21T17:28:53;4.30;97.86
71047;SHT31;58703;48.978;8.982;2022-11-21T17:31:20;4.21;98.38
71047;SHT31;58703;48.978;8.982;2022-11-21T17:33:47;4.17;98.39
71047;SHT31;58703;48.978;8.982;2022-11-21T17:36:18;4.14;98.47
71047;SHT31;58703;48.978;8.982;2022-11-21T17:38:44;4.23;98.66
71047;SHT31;58703;48.978;8.982;2022-11-21T17:41:13;4.29;98.04
71047;SHT31;58703;48.978;8.982;2022-11-21T17:43:39;4.26;97.97
71047;SHT31;58703;48.978;8.982;2022-11-21T17:46:09;4.23;97.80
71047;SHT31;58703;48.978;8.982;2022-11-21T17:48:37;4.18;97.90
71047;SHT31;58703;48.978;8.982;2022-11-21T17:51:16;4.02;98.35
71047;SHT31;58703;48.978;8.982;2022-11-21T17:53:44;4.02;98.57
71047;SHT31;58703;48.978;8.982;2022-11-21T17:56:12;4.07;98.53
71047;SHT31;58703;48.978;8.982;2022-11-21T17:58:38;4.24;98.04
71047;SHT31;58703;48.978;8.982;2022-11-21T18:01:06;4.18;98.14
71047;SHT31;58703;48.978;8.982;2022-11-21T18:03:32;4.26;98.01
71047;SHT31;58703;48.978;8.982;2022-11-21T18:06:00;4.27;98.00
71047;SHT31;58703;48.978;8.982;2022-11-21T18:08:34;4.34;97.95
71047;SHT31;58703;48.978;8.982;2022-11-21T18:11:02;4.43;97.56
71047;SHT31;58703;48.978;8.982;2022-11-21T18:13:28;4.47;97.13
71047;SHT31;58703;48.978;8.982;2022-11-21T18:15:55;4.53;96.94
71047;SHT31;58703;48.978;8.982;2022-11-21T18:18:23;4.57;96.94
71047;SHT31;58703;48.978;8.982;2022-11-21T18:20:49;4.61;96.73
71047;SHT31;58703;48.978;8.982;2022-11-21T18:23:17;4.67;96.17
71047;SHT31;58703;48.978;8.982;2022-11-21T18:25:42;4.67;96.09